Time;durP1;ratioP1;P1;durP2;ratioP2;P2;SDS_P1;SDS_P2;PMS_P1;PMS_P2;Temp;Humidity;BMP_temperature;BMP_pressure;BME280_temperature;BME280_humidity;BME280_pressure;Samples;Min_cycle;Max_cycle;Signal;HPM_P1;HPM_P2
2022/06/04 00:01:54;;;;;;;4.43;3.45;;;;;;;;;;5041759;28;20193;-67
2022/06/04 00:04:20;;;;;;;4.95;3.50;;;;;;;;;;5047457;28;20227;-69
2022/06/04 00:06:45;;;;;;;8.20;2.85;;;;;;;;;;5039321;28;20189;-67
2022/06/04 00:09:12;;;;;;;7.60;3.75;;;;;;;;;;5035088;28;20595;-70
2022/06/04 00:17:10;;;;;;;6.38;3.85;;;;;;;;;;5031852;28;20558;-70
2022/06/04 00:19:37;;;;;;;8.43;4.15;;;;;;;;;;5029206;28;20289;-70
2022/06/04 00:22:03;;;;;;;8.50;4.20;;;;;;;;;;5034767;28;20269;-69
2022/06/04 00:24:29;;;;;;;8.15;4.95;;;;;;;;;;5041152;28;20186;-72
2022/06/04 00:26:55;;;;;;;7.25;4.72;;;;;;;;;;5029630;28;20232;-69
2022/06/04 00:29:20;;;;;;;5.13;4.50;;;;;;;;;;5032519;28;20177;-71
2022/06/04 00:31:46;;;;;;;9.75;4.78;;;;;;;;;;5031980;28;20194;-72
2022/06/04 00:34:11;;;;;;;8.90;5.38;;;;;;;;;;5038842;28;20244;-71
2022/06/04 00:36:37;;;;;;;9.02;5.10;;;;;;;;;;5044597;28;20308;-69
2022/06/04 00:39:03;;;;;;;10.43;5.38;;;;;;;;;;5030440;28;20206;-67
2022/06/04 00:41:43;;;;;;;12.60;4.97;;;;;;;;;;5032725;28;20208;-70
2022/06/04 00:44:13;;;;;;;8.23;5.05;;;;;;;;;;5042871;28;20547;-68
2022/06/04 00:46:41;;;;;;;8.40;5.68;;;;;;;;;;5032332;28;20273;-67
2022/06/04 00:49:13;;;;;;;10.30;5.55;;;;;;;;;;5031906;28;20212;-66
2022/06/04 00:51:40;;;;;;;8.52;5.30;;;;;;;;;;5034807;28;20207;-68
2022/06/04 00:54:06;;;;;;;9.15;5.70;;;;;;;;;;5029934;28;20182;-70
2022/06/04 00:56:48;;;;;;;9.07;5.25;;;;;;;;;;5033734;28;20196;-67
2022/06/04 00:59:51;;;;;;;8.57;5.57;;;;;;;;;;5032375;28;20205;-71
2022/06/04 01:02:51;;;;;;;9.93;5.75;;;;;;;;;;5043269;28;20264;-68
2022/06/04 01:05:21;;;;;;;7.93;5.38;;;;;;;;;;5048321;28;20209;-71
2022/06/04 01:08:09;;;;;;;11.35;6.00;;;;;;;;;;5035229;28;20181;-71
2022/06/04 01:11:11;;;;;;;7.93;5.50;;;;;;;;;;5036224;28;20186;-68
2022/06/04 01:13:51;;;;;;;8.55;5.25;;;;;;;;;;5041725;28;20712;-71
2022/06/04 01:16:29;;;;;;;7.38;5.07;;;;;;;;;;5034241;28;20239;-70
2022/06/04 01:19:25;;;;;;;11.73;6.10;;;;;;;;;;5029328;28;20626;-69
2022/06/04 01:22:08;;;;;;;9.15;5.53;;;;;;;;;;5027698;28;20198;-69
2022/06/04 01:25:15;;;;;;;13.77;6.20;;;;;;;;;;5046000;28;20181;-70
2022/06/04 01:27:46;;;;;;;12.82;6.38;;;;;;;;;;5033713;28;20186;-70
2022/06/04 01:30:22;;;;;;;11.07;5.93;;;;;;;;;;5033057;28;20184;-68
2022/06/04 01:33:13;;;;;;;13.20;6.45;;;;;;;;;;5033189;28;20214;-69
2022/06/04 01:35:47;;;;;;;9.40;6.28;;;;;;;;;;5042767;28;20193;-69
2022/06/04 01:38:15;;;;;;;14.07;6.85;;;;;;;;;;5040827;28;20531;-66
2022/06/04 01:41:03;;;;;;;12.07;6.53;;;;;;;;;;5037681;28;20194;-68
2022/06/04 01:43:31;;;;;;;15.80;6.35;;;;;;;;;;5032672;28;20169;-68
2022/06/04 01:46:07;;;;;;;12.25;6.45;;;;;;;;;;5028392;28;20185;-67
2022/06/04 01:48:36;;;;;;;11.13;6.22;;;;;;;;;;5045005;28;20177;-70
2022/06/04 01:51:05;;;;;;;14.43;6.18;;;;;;;;;;5035262;28;20269;-67
2022/06/04 01:53:35;;;;;;;12.80;6.47;;;;;;;;;;5027812;28;20198;-67
2022/06/04 01:56:05;;;;;;;12.23;6.40;;;;;;;;;;5039037;28;20272;-69
2022/06/04 01:58:37;;;;;;;12.50;6.57;;;;;;;;;;5035833;28;20201;-69
2022/06/04 02:01:10;;;;;;;17.00;6.63;;;;;;;;;;5042378;28;20189;-70
2022/06/04 02:03:45;;;;;;;9.00;6.30;;;;;;;;;;5039478;28;20174;-68
2022/06/04 02:06:15;;;;;;;11.82;6.47;;;;;;;;;;5043259;28;20651;-70
2022/06/04 02:09:04;;;;;;;12.88;6.70;;;;;;;;;;5045040;28;20633;-69
2022/06/04 02:11:30;;;;;;;12.07;7.05;;;;;;;;;;5028100;28;20186;-70
2022/06/04 02:13:58;;;;;;;13.68;7.30;;;;;;;;;;5036753;28;20226;-69
2022/06/04 02:16:39;;;;;;;11.93;6.75;;;;;;;;;;5033422;28;20181;-69
2022/06/04 02:19:04;;;;;;;10.52;6.97;;;;;;;;;;5028817;28;20276;-71
2022/06/04 02:21:31;;;;;;;13.05;7.22;;;;;;;;;;5033549;28;20372;-71
2022/06/04 02:23:57;;;;;;;10.23;6.55;;;;;;;;;;5018812;28;20607;-70
2022/06/04 02:26:24;;;;;;;12.80;6.85;;;;;;;;;;5032878;28;20209;-68
2022/06/04 02:28:50;;;;;;;16.50;7.47;;;;;;;;;;5035386;28;20185;-67
2022/06/04 02:31:42;;;;;;;15.90;6.85;;;;;;;;;;5036001;28;20201;-71
2022/06/04 02:34:39;;;;;;;13.52;7.60;;;;;;;;;;5027295;28;20529;-70
2022/06/04 02:37:14;;;;;;;11.52;6.82;;;;;;;;;;5034710;28;20186;-70
2022/06/04 02:39:55;;;;;;;13.25;7.00;;;;;;;;;;5037693;28;20227;-66
2022/06/04 02:42:34;;;;;;;16.75;6.57;;;;;;;;;;5043397;28;20550;-67
2022/06/04 02:45:10;;;;;;;17.75;7.65;;;;;;;;;;5046468;28;20213;-69
2022/06/04 02:47:58;;;;;;;12.52;6.63;;;;;;;;;;5034293;28;20637;-70
2022/06/04 02:50:34;;;;;;;14.63;7.13;;;;;;;;;;5039080;28;20178;-67
2022/06/04 02:53:01;;;;;;;14.43;6.95;;;;;;;;;;5041879;28;20178;-70
2022/06/04 02:55:31;;;;;;;12.10;6.80;;;;;;;;;;5034392;28;20304;-71
2022/06/04 02:58:01;;;;;;;15.43;7.53;;;;;;;;;;5034178;28;20268;-72
2022/06/04 03:00:28;;;;;;;19.15;7.30;;;;;;;;;;5034886;28;20738;-70
2022/06/04 03:02:54;;;;;;;13.00;7.28;;;;;;;;;;5041702;28;20220;-69
2022/06/04 03:05:25;;;;;;;11.77;6.78;;;;;;;;;;5044691;28;20227;-71
2022/06/04 03:07:54;;;;;;;14.13;7.60;;;;;;;;;;5049588;28;20207;-71
2022/06/04 03:10:35;;;;;;;11.65;7.20;;;;;;;;;;5045430;28;20588;-70
2022/06/04 03:13:00;;;;;;;13.32;8.02;;;;;;;;;;5044565;28;20603;-70
2022/06/04 03:15:26;;;;;;;15.35;7.60;;;;;;;;;;5025053;28;20193;-71
2022/06/04 03:17:52;;;;;;;11.25;7.00;;;;;;;;;;5032848;28;20182;-71
2022/06/04 03:20:22;;;;;;;14.23;7.25;;;;;;;;;;5032395;28;20238;-70
2022/06/04 03:22:47;;;;;;;16.88;7.47;;;;;;;;;;5032036;28;20545;-72
2022/06/04 03:25:13;;;;;;;13.13;7.43;;;;;;;;;;5041065;28;20190;-66
2022/06/04 03:27:38;;;;;;;17.05;7.90;;;;;;;;;;5024824;28;20178;-69
2022/06/04 03:30:05;;;;;;;15.50;7.70;;;;;;;;;;5039113;28;20216;-68
2022/06/04 03:32:31;;;;;;;12.30;6.90;;;;;;;;;;5035675;28;20201;-69
2022/06/04 03:34:56;;;;;;;13.07;7.35;;;;;;;;;;5046008;28;20242;-69
2022/06/04 03:37:22;;;;;;;11.82;6.65;;;;;;;;;;5036328;28;20171;-71
2022/06/04 03:39:47;;;;;;;17.00;7.30;;;;;;;;;;5034035;28;20507;-70
2022/06/04 03:42:13;;;;;;;13.30;6.85;;;;;;;;;;5034081;28;20656;-68
2022/06/04 03:44:40;;;;;;;13.85;6.82;;;;;;;;;;5028701;28;20670;-70
2022/06/04 03:47:05;;;;;;;16.58;7.43;;;;;;;;;;5034969;28;20694;-70
2022/06/04 03:49:32;;;;;;;14.77;7.20;;;;;;;;;;5032951;28;20508;-70
2022/06/04 03:51:57;;;;;;;13.70;6.65;;;;;;;;;;5039439;28;20646;-70
2022/06/04 03:54:52;;;;;;;11.43;7.18;;;;;;;;;;5035455;28;20228;-69
2022/06/04 03:59:53;;;;;;;15.07;6.35;;;;;;;;;;5031962;28;20260;-68
2022/06/04 04:02:19;;;;;;;12.52;7.00;;;;;;;;;;5037470;28;20541;-71
2022/06/04 04:04:44;;;;;;;13.02;6.95;;;;;;;;;;5040994;28;20186;-66
2022/06/04 04:07:10;;;;;;;11.00;6.85;;;;;;;;;;5046807;28;20182;-68
2022/06/04 04:09:35;;;;;;;10.07;7.15;;;;;;;;;;5048029;28;20181;-67
2022/06/04 04:12:00;;;;;;;14.43;6.90;;;;;;;;;;5034966;28;20194;-70
2022/06/04 04:14:26;;;;;;;12.88;6.65;;;;;;;;;;5042924;28;20309;-70
2022/06/04 04:16:51;;;;;;;12.13;7.28;;;;;;;;;;5033844;28;20185;-70
2022/06/04 04:19:16;;;;;;;11.90;7.00;;;;;;;;;;5037173;28;20198;-69
2022/06/04 04:21:42;;;;;;;15.18;7.00;;;;;;;;;;5036185;28;20888;-68
2022/06/04 04:24:07;;;;;;;11.57;6.28;;;;;;;;;;5033504;28;20189;-70
2022/06/04 04:26:33;;;;;;;17.50;6.75;;;;;;;;;;5040997;28;20189;-67
2022/06/04 04:28:58;;;;;;;11.77;6.55;;;;;;;;;;5039885;28;20539;-70
2022/06/04 04:31:23;;;;;;;11.07;6.85;;;;;;;;;;5035712;28;20252;-66
2022/06/04 04:33:49;;;;;;;13.20;6.32;;;;;;;;;;5042572;28;20239;-70
2022/06/04 04:36:14;;;;;;;15.18;7.28;;;;;;;;;;5031932;28;20260;-70
2022/06/04 04:38:40;;;;;;;14.38;7.30;;;;;;;;;;5039576;28;20189;-68
2022/06/04 04:41:13;;;;;;;10.55;5.65;;;;;;;;;;5038314;28;20200;-70
2022/06/04 04:43:40;;;;;;;14.73;6.30;;;;;;;;;;5045434;28;20189;-70
2022/06/04 04:46:08;;;;;;;11.48;7.38;;;;;;;;;;5045808;28;20223;-70
2022/06/04 04:48:35;;;;;;;12.00;5.78;;;;;;;;;;5037006;28;20181;-69
2022/06/04 04:51:00;;;;;;;13.65;6.78;;;;;;;;;;5036437;28;20215;-69
2022/06/04 04:53:26;;;;;;;19.48;7.78;;;;;;;;;;5041004;28;20196;-70
2022/06/04 04:55:52;;;;;;;10.18;6.30;;;;;;;;;;5034196;28;20554;-69
2022/06/04 04:58:18;;;;;;;11.88;6.55;;;;;;;;;;5036205;28;20235;-68
2022/06/04 05:00:43;;;;;;;12.18;6.80;;;;;;;;;;5038292;28;20221;-70
2022/06/04 05:03:09;;;;;;;9.35;5.82;;;;;;;;;;5035681;28;20581;-71
2022/06/04 05:05:35;;;;;;;10.38;6.20;;;;;;;;;;5033256;28;20181;-69
2022/06/04 05:08:01;;;;;;;12.63;6.53;;;;;;;;;;5040476;28;20186;-68
2022/06/04 05:10:26;;;;;;;11.90;5.95;;;;;;;;;;5033571;28;20178;-69
2022/06/04 05:12:53;;;;;;;9.75;6.07;;;;;;;;;;5034993;28;20248;-67
2022/06/04 05:15:19;;;;;;;11.27;6.10;;;;;;;;;;5044785;28;20260;-72
2022/06/04 05:17:44;;;;;;;10.18;6.05;;;;;;;;;;5041047;28;20729;-71
2022/06/04 05:20:10;;;;;;;14.40;6.22;;;;;;;;;;5032494;28;20313;-71
2022/06/04 05:22:35;;;;;;;12.73;6.47;;;;;;;;;;5034818;28;20668;-71
2022/06/04 05:25:01;;;;;;;12.45;6.88;;;;;;;;;;5037102;28;20273;-69
2022/06/04 05:27:27;;;;;;;12.35;6.53;;;;;;;;;;5035375;28;20193;-71
2022/06/04 05:29:52;;;;;;;10.52;6.35;;;;;;;;;;5038299;28;20765;-71
2022/06/04 05:32:18;;;;;;;11.35;5.80;;;;;;;;;;5039364;28;20668;-72
2022/06/04 05:34:43;;;;;;;11.13;6.10;;;;;;;;;;5036916;28;20585;-70
2022/06/04 05:37:09;;;;;;;16.65;6.68;;;;;;;;;;5033979;28;20232;-68
2022/06/04 05:39:35;;;;;;;13.02;5.57;;;;;;;;;;5041428;28;20328;-67
2022/06/04 05:42:02;;;;;;;11.55;6.22;;;;;;;;;;5034815;28;20182;-71
2022/06/04 05:44:28;;;;;;;13.85;5.60;;;;;;;;;;5034610;28;20212;-71
2022/06/04 05:46:54;;;;;;;9.82;6.60;;;;;;;;;;5032092;28;20661;-71
2022/06/04 05:49:20;;;;;;;9.05;5.90;;;;;;;;;;5002701;28;20174;-68
2022/06/04 05:51:46;;;;;;;12.73;6.22;;;;;;;;;;5037607;28;20578;-71
2022/06/04 05:54:13;;;;;;;8.23;6.40;;;;;;;;;;5041618;28;20177;-69
2022/06/04 05:56:40;;;;;;;10.35;6.70;;;;;;;;;;5037617;28;20186;-68
2022/06/04 05:59:09;;;;;;;8.52;6.07;;;;;;;;;;5030759;28;20221;-69
2022/06/04 06:01:38;;;;;;;9.35;5.85;;;;;;;;;;5039892;28;20707;-70
2022/06/04 06:04:05;;;;;;;10.40;5.97;;;;;;;;;;5030945;28;20178;-69
2022/06/04 06:06:32;;;;;;;10.65;5.57;;;;;;;;;;5034192;28;20231;-71
2022/06/04 06:09:01;;;;;;;12.10;6.35;;;;;;;;;;5032015;28;20178;-71
2022/06/04 06:11:27;;;;;;;10.30;5.88;;;;;;;;;;5038600;28;20205;-71
2022/06/04 06:13:52;;;;;;;8.90;5.78;;;;;;;;;;5038651;28;20747;-73
2022/06/04 06:16:21;;;;;;;9.55;5.20;;;;;;;;;;5039059;28;20190;-68
2022/06/04 06:18:47;;;;;;;7.70;5.53;;;;;;;;;;5039619;28;20202;-71
2022/06/04 06:21:18;;;;;;;12.55;6.45;;;;;;;;;;5042612;28;20185;-68
2022/06/04 06:23:44;;;;;;;11.45;5.38;;;;;;;;;;5032574;28;20660;-69
2022/06/04 06:26:13;;;;;;;11.80;6.38;;;;;;;;;;5037282;28;20272;-68
2022/06/04 06:28:40;;;;;;;10.95;5.70;;;;;;;;;;5041002;28;20581;-70
2022/06/04 06:31:06;;;;;;;10.52;5.53;;;;;;;;;;5037425;28;20652;-71
2022/06/04 06:33:32;;;;;;;9.27;5.93;;;;;;;;;;5035283;28;20182;-69
2022/06/04 06:36:00;;;;;;;8.98;6.22;;;;;;;;;;5037059;28;20193;-70
2022/06/04 06:38:25;;;;;;;9.05;5.72;;;;;;;;;;5038531;28;20178;-70
2022/06/04 06:40:54;;;;;;;9.13;5.85;;;;;;;;;;5043805;28;20185;-71
2022/06/04 06:43:19;;;;;;;8.32;5.18;;;;;;;;;;5037528;28;20604;-68
2022/06/04 06:45:45;;;;;;;11.32;5.95;;;;;;;;;;5032387;28;20220;-70
2022/06/04 06:48:11;;;;;;;13.40;6.20;;;;;;;;;;5039711;28;20187;-70
2022/06/04 06:50:37;;;;;;;6.53;5.55;;;;;;;;;;5040954;28;20543;-69
2022/06/04 06:53:03;;;;;;;13.18;5.68;;;;;;;;;;5040165;28;20184;-70
2022/06/04 06:55:28;;;;;;;11.82;5.20;;;;;;;;;;5034299;28;20200;-71
2022/06/04 06:57:54;;;;;;;12.70;5.82;;;;;;;;;;5040040;28;20280;-69
2022/06/04 07:00:19;;;;;;;9.05;5.45;;;;;;;;;;5037208;28;20205;-70
2022/06/04 07:02:44;;;;;;;11.38;5.13;;;;;;;;;;5046215;28;20194;-72
2022/06/04 07:05:11;;;;;;;9.73;5.45;;;;;;;;;;5044343;28;20189;-73
2022/06/04 07:07:36;;;;;;;6.60;5.03;;;;;;;;;;5040976;28;20185;-66
2022/06/04 07:10:02;;;;;;;9.23;5.22;;;;;;;;;;5038821;28;20244;-69
2022/06/04 07:12:27;;;;;;;8.60;5.32;;;;;;;;;;5039833;28;20256;-71
2022/06/04 07:14:53;;;;;;;7.38;4.05;;;;;;;;;;5039863;28;20190;-70
2022/06/04 07:17:18;;;;;;;7.97;5.53;;;;;;;;;;5031592;28;20217;-69
2022/06/04 07:19:44;;;;;;;11.25;4.90;;;;;;;;;;5048207;28;20623;-67
2022/06/04 07:22:10;;;;;;;9.82;5.00;;;;;;;;;;5034932;28;20587;-67
2022/06/04 07:24:36;;;;;;;10.13;5.53;;;;;;;;;;5026132;28;20216;-73
2022/06/04 07:27:02;;;;;;;8.63;4.75;;;;;;;;;;5041260;28;20597;-71
2022/06/04 07:29:28;;;;;;;9.40;4.90;;;;;;;;;;5039997;28;20235;-70
2022/06/04 07:31:54;;;;;;;9.52;5.05;;;;;;;;;;5032833;28;20218;-69
2022/06/04 07:34:19;;;;;;;11.20;4.78;;;;;;;;;;5037364;28;20589;-70
2022/06/04 07:36:45;;;;;;;9.40;5.40;;;;;;;;;;5040713;28;20272;-69
2022/06/04 07:39:14;;;;;;;8.75;5.35;;;;;;;;;;5030502;28;20245;-71
2022/06/04 07:41:43;;;;;;;8.10;5.47;;;;;;;;;;5030682;28;20227;-71
2022/06/04 07:44:09;;;;;;;7.68;4.10;;;;;;;;;;5037798;28;20180;-71
2022/06/04 07:46:36;;;;;;;7.32;4.80;;;;;;;;;;5031943;28;20178;-69
2022/06/04 07:49:03;;;;;;;8.43;4.50;;;;;;;;;;5035596;28;20219;-70
2022/06/04 07:51:30;;;;;;;7.88;4.38;;;;;;;;;;5031860;28;20205;-71
2022/06/04 07:53:56;;;;;;;7.88;5.13;;;;;;;;;;5041000;28;20239;-70
2022/06/04 07:56:23;;;;;;;6.10;4.82;;;;;;;;;;5042653;28;20665;-68
2022/06/04 07:58:48;;;;;;;6.60;5.03;;;;;;;;;;5030357;28;20229;-70
2022/06/04 08:01:16;;;;;;;8.32;4.60;;;;;;;;;;5030664;28;20205;-70
2022/06/04 08:03:43;;;;;;;7.05;4.60;;;;;;;;;;5037579;28;20653;-70
2022/06/04 08:06:10;;;;;;;8.23;4.47;;;;;;;;;;5042534;28;20216;-71
2022/06/04 08:08:36;;;;;;;10.15;4.82;;;;;;;;;;5046511;28;20494;-69
2022/06/04 08:11:30;;;;;;;7.93;4.15;;;;;;;;;;5042900;28;20200;-69
2022/06/04 08:13:48;;;;;;;6.95;4.78;;;;;;;;;;5035891;28;20225;-69
2022/06/04 08:16:14;;;;;;;7.43;4.50;;;;;;;;;;5038545;28;20189;-67
2022/06/04 08:18:39;;;;;;;12.93;4.97;;;;;;;;;;5037495;28;20569;-69
2022/06/04 08:21:06;;;;;;;8.07;4.70;;;;;;;;;;5035448;28;20209;-71
2022/06/04 08:23:32;;;;;;;7.15;4.72;;;;;;;;;;5031056;28;20620;-67
2022/06/04 08:25:57;;;;;;;14.63;5.13;;;;;;;;;;5043504;28;20186;-70
2022/06/04 08:28:22;;;;;;;11.98;5.25;;;;;;;;;;5036857;28;20188;-68
2022/06/04 08:31:18;;;;;;;7.47;4.38;;;;;;;;;;5045797;28;20206;-68
2022/06/04 08:33:44;;;;;;;9.27;5.10;;;;;;;;;;5037763;28;20688;-68
2022/06/04 08:36:11;;;;;;;6.68;4.70;;;;;;;;;;5043110;28;20280;-69
2022/06/04 08:38:37;;;;;;;10.55;4.13;;;;;;;;;;5039703;28;20193;-67
2022/06/04 08:41:05;;;;;;;8.32;4.05;;;;;;;;;;5045282;28;20186;-67
2022/06/04 08:43:49;;;;;;;7.43;4.03;;;;;;;;;;5042138;28;20217;-65
2022/06/04 08:46:32;;;;;;;6.60;3.50;;;;;;;;;;5048621;28;20301;-71
2022/06/04 08:49:02;;;;;;;7.25;4.43;;;;;;;;;;5034561;28;20201;-70
2022/06/04 08:51:29;;;;;;;5.10;3.80;;;;;;;;;;5044408;28;20180;-68
2022/06/04 08:53:56;;;;;;;9.60;4.18;;;;;;;;;;5033155;28;20720;-70
2022/06/04 08:59:10;;;;;;;10.02;4.28;;;;;;;;;;5032898;28;20756;-69
2022/06/04 09:01:45;;;;;;;9.50;3.80;;;;;;;;;;5037458;28;20190;-68
2022/06/04 09:04:48;;;;;;;8.75;4.03;;;;;;;;;;5044802;28;20651;-71
2022/06/04 09:07:37;;;;;;;7.82;4.20;;;;;;;;;;5038991;28;20232;-72
2022/06/04 09:10:15;;;;;;;6.82;4.65;;;;;;;;;;5040881;28;20205;-68
2022/06/04 09:12:54;;;;;;;5.75;4.00;;;;;;;;;;5040423;28;20229;-70
2022/06/04 09:15:29;;;;;;;5.25;4.18;;;;;;;;;;5036007;28;20170;-70
2022/06/04 09:17:57;;;;;;;5.97;4.22;;;;;;;;;;5045990;28;20188;-67
2022/06/04 09:20:43;;;;;;;6.65;4.07;;;;;;;;;;5045370;28;20436;-69
2022/06/04 09:23:30;;;;;;;10.77;5.10;;;;;;;;;;5033801;28;20217;-67
2022/06/04 09:25:58;;;;;;;11.27;5.10;;;;;;;;;;5030418;28;20272;-71
2022/06/04 09:28:38;;;;;;;4.55;3.83;;;;;;;;;;5028909;28;20560;-72
2022/06/04 09:31:34;;;;;;;6.90;4.40;;;;;;;;;;5038499;28;20212;-69
2022/06/04 09:34:04;;;;;;;5.15;4.15;;;;;;;;;;5041533;28;20200;-71
2022/06/04 09:36:36;;;;;;;7.55;4.00;;;;;;;;;;5030307;28;20186;-69
2022/06/04 09:39:05;;;;;;;7.88;4.60;;;;;;;;;;5033241;28;20229;-70
2022/06/04 09:41:33;;;;;;;6.45;4.38;;;;;;;;;;5047785;28;20597;-71
2022/06/04 09:44:15;;;;;;;6.72;4.05;;;;;;;;;;5040190;28;20610;-67
2022/06/04 09:46:45;;;;;;;6.43;4.82;;;;;;;;;;5037439;28;20184;-69
2022/06/04 09:49:32;;;;;;;6.88;4.18;;;;;;;;;;5031126;28;20610;-71
2022/06/04 09:51:57;;;;;;;6.72;4.22;;;;;;;;;;5032743;28;20248;-71
2022/06/04 09:54:33;;;;;;;6.63;4.47;;;;;;;;;;5038228;28;20177;-66
2022/06/04 09:57:02;;;;;;;7.35;4.72;;;;;;;;;;5032027;28;20580;-70
2022/06/04 09:59:30;;;;;;;9.15;4.68;;;;;;;;;;5045940;28;20204;-68
2022/06/04 10:01:58;;;;;;;6.93;5.22;;;;;;;;;;5042371;28;20253;-68
2022/06/04 10:04:38;;;;;;;6.95;4.80;;;;;;;;;;5030801;28;20189;-70
2022/06/04 10:07:10;;;;;;;9.75;4.30;;;;;;;;;;5035830;28;20247;-71
2022/06/04 10:09:56;;;;;;;7.47;4.13;;;;;;;;;;5046071;28;20174;-66
2022/06/04 10:15:36;;;;;;;9.35;4.20;;;;;;;;;;5045065;28;20200;-73
2022/06/04 10:18:18;;;;;;;6.80;4.22;;;;;;;;;;5040482;28;20178;-72
2022/06/04 10:21:02;;;;;;;8.20;4.55;;;;;;;;;;5046930;28;20213;-68
2022/06/04 10:23:31;;;;;;;6.00;4.28;;;;;;;;;;5035307;28;20235;-70
2022/06/04 10:26:14;;;;;;;7.80;3.90;;;;;;;;;;5042069;28;20238;-70
2022/06/04 10:29:00;;;;;;;7.60;4.50;;;;;;;;;;5046077;28;20203;-71
2022/06/04 10:31:47;;;;;;;8.77;4.15;;;;;;;;;;5049490;28;20212;-69
2022/06/04 10:34:42;;;;;;;10.55;4.25;;;;;;;;;;5036986;28;20568;-72
2022/06/04 10:37:26;;;;;;;5.97;4.15;;;;;;;;;;5044260;28;20268;-68
2022/06/04 10:40:21;;;;;;;6.78;3.58;;;;;;;;;;5041976;28;20216;-69
2022/06/04 10:43:05;;;;;;;6.70;3.78;;;;;;;;;;5037618;28;20181;-71
2022/06/04 10:45:49;;;;;;;5.25;3.88;;;;;;;;;;5036095;28;20301;-66
2022/06/04 10:48:52;;;;;;;7.90;4.40;;;;;;;;;;5031860;28;20260;-66
2022/06/04 10:51:26;;;;;;;7.72;4.45;;;;;;;;;;5038368;28;20224;-67
2022/06/04 10:54:22;;;;;;;6.70;4.40;;;;;;;;;;5045854;28;20664;-68
2022/06/04 10:56:56;;;;;;;4.32;3.92;;;;;;;;;;5033245;28;20189;-69
2022/06/04 10:59:49;;;;;;;5.13;3.60;;;;;;;;;;5032404;28;20201;-70
2022/06/04 11:02:24;;;;;;;4.63;3.47;;;;;;;;;;5040595;28;20213;-70
2022/06/04 11:04:54;;;;;;;6.03;3.42;;;;;;;;;;5032993;28;20679;-68
2022/06/04 11:07:38;;;;;;;7.53;3.55;;;;;;;;;;5042229;28;20181;-71
2022/06/04 11:10:13;;;;;;;7.18;3.28;;;;;;;;;;5043329;28;20697;-71
2022/06/04 11:12:41;;;;;;;6.88;3.80;;;;;;;;;;5033692;28;20557;-70
2022/06/04 11:15:17;;;;;;;8.15;3.72;;;;;;;;;;5038145;28;20194;-69
2022/06/04 11:18:31;;;;;;;7.57;3.78;;;;;;;;;;5045744;28;20185;-68
2022/06/04 11:21:04;;;;;;;6.40;3.92;;;;;;;;;;5012910;28;20190;-69
2022/06/04 11:23:42;;;;;;;4.40;3.53;;;;;;;;;;5038859;28;20202;-68
2022/06/04 11:26:27;;;;;;;4.80;3.50;;;;;;;;;;5041134;28;20290;-72
2022/06/04 11:28:54;;;;;;;4.78;4.03;;;;;;;;;;5037338;28;20674;-68
2022/06/04 11:31:40;;;;;;;7.97;4.00;;;;;;;;;;5041522;28;20673;-68
2022/06/04 11:34:24;;;;;;;5.28;3.40;;;;;;;;;;5040382;28;20243;-71
2022/06/04 11:37:06;;;;;;;5.35;4.10;;;;;;;;;;5045172;28;20526;-67
2022/06/04 11:39:47;;;;;;;5.68;3.60;;;;;;;;;;5039099;28;20194;-68
2022/06/04 11:42:36;;;;;;;5.93;3.83;;;;;;;;;;5037158;28;20204;-72
2022/06/04 11:45:14;;;;;;;5.75;3.30;;;;;;;;;;5045983;28;20203;-70
2022/06/04 11:48:03;;;;;;;6.22;3.50;;;;;;;;;;5040919;28;20190;-71
2022/06/04 11:50:45;;;;;;;4.57;3.42;;;;;;;;;;5036953;28;20256;-72
2022/06/04 11:53:45;;;;;;;4.10;3.70;;;;;;;;;;5045918;28;20182;-70
2022/06/04 11:56:24;;;;;;;6.07;3.78;;;;;;;;;;5047162;28;20231;-70
2022/06/04 11:59:24;;;;;;;6.45;3.75;;;;;;;;;;5038447;28;20274;-71
2022/06/04 12:02:08;;;;;;;8.75;4.10;;;;;;;;;;5048357;28;20189;-71
2022/06/04 12:05:03;;;;;;;5.70;3.63;;;;;;;;;;5040474;28;20217;-69
2022/06/04 12:07:44;;;;;;;6.57;4.47;;;;;;;;;;5034513;28;20224;-70
2022/06/04 12:10:34;;;;;;;7.63;4.00;;;;;;;;;;5034450;28;20532;-70
2022/06/04 12:13:23;;;;;;;5.25;3.90;;;;;;;;;;5048804;28;20251;-67
2022/06/04 12:16:14;;;;;;;8.25;3.92;;;;;;;;;;5039707;28;20601;-70
2022/06/04 12:24:15;;;;;;;7.10;3.83;;;;;;;;;;5039695;28;20186;-68
2022/06/04 12:25:07;;;;;;;5.53;3.70;;;;;;;;;;5043751;28;20192;-70
2022/06/04 12:27:33;;;;;;;7.57;3.60;;;;;;;;;;5029610;28;20243;-71
2022/06/04 12:30:00;;;;;;;5.70;3.00;;;;;;;;;;5029321;28;20605;-69
2022/06/04 12:32:30;;;;;;;3.92;3.53;;;;;;;;;;5030325;28;20674;-69
2022/06/04 12:35:09;;;;;;;5.32;3.70;;;;;;;;;;5047487;28;20251;-66
2022/06/04 12:37:42;;;;;;;4.53;3.47;;;;;;;;;;5038159;28;20254;-71
2022/06/04 12:40:19;;;;;;;5.70;3.63;;;;;;;;;;5048285;28;20272;-68
2022/06/04 12:43:33;;;;;;;4.75;3.38;;;;;;;;;;5035351;28;20235;-69
2022/06/04 12:46:22;;;;;;;5.93;3.72;;;;;;;;;;5026752;28;20714;-69
2022/06/04 12:49:21;;;;;;;5.63;4.07;;;;;;;;;;5039501;28;20241;-70
2022/06/04 12:51:52;;;;;;;5.63;4.07;;;;;;;;;;5042036;28;20672;-69
2022/06/04 12:54:42;;;;;;;7.22;3.25;;;;;;;;;;5039184;28;20265;-71
2022/06/04 12:57:10;;;;;;;7.75;3.72;;;;;;;;;;5037587;28;20648;-68
2022/06/04 12:59:36;;;;;;;7.13;4.07;;;;;;;;;;5028608;28;20271;-70
2022/06/04 13:02:02;;;;;;;5.78;3.70;;;;;;;;;;5034098;28;20185;-66
2022/06/04 13:04:38;;;;;;;5.07;3.80;;;;;;;;;;5034616;28;20186;-69
2022/06/04 13:07:25;;;;;;;6.70;3.83;;;;;;;;;;5033790;28;20250;-67
2022/06/04 13:10:08;;;;;;;5.43;3.80;;;;;;;;;;5035574;28;20264;-72
2022/06/04 13:12:43;;;;;;;4.40;3.47;;;;;;;;;;5040524;28;20248;-69
2022/06/04 13:15:31;;;;;;;4.68;3.50;;;;;;;;;;5028239;28;20190;-65
2022/06/04 13:17:57;;;;;;;6.10;3.60;;;;;;;;;;5037778;28;20182;-68
2022/06/04 13:20:57;;;;;;;4.45;3.65;;;;;;;;;;5029972;28;20252;-70
2022/06/04 13:23:27;;;;;;;5.00;4.03;;;;;;;;;;5033481;28;20181;-72
2022/06/04 13:26:16;;;;;;;6.28;3.72;;;;;;;;;;5040769;28;20198;-68
2022/06/04 13:28:46;;;;;;;9.93;3.88;;;;;;;;;;5031851;28;20182;-71
2022/06/04 13:31:29;;;;;;;5.32;3.90;;;;;;;;;;5045764;28;20193;-69
2022/06/04 13:33:56;;;;;;;3.67;3.13;;;;;;;;;;5039995;28;20357;-70
2022/06/04 13:36:30;;;;;;;7.53;3.72;;;;;;;;;;5027260;28;20182;-72
2022/06/04 13:38:58;;;;;;;4.97;3.67;;;;;;;;;;5037601;28;20218;-68
2022/06/04 13:44:16;;;;;;;8.27;3.80;;;;;;;;;;5040871;28;20192;-69
2022/06/04 13:46:42;;;;;;;7.55;3.83;;;;;;;;;;5030541;28;20654;-72
2022/06/04 13:49:19;;;;;;;7.95;4.13;;;;;;;;;;5041009;28;20174;-71
2022/06/04 13:51:47;;;;;;;5.22;3.97;;;;;;;;;;5039095;28;20525;-72
2022/06/04 13:54:26;;;;;;;6.43;3.67;;;;;;;;;;5037808;28;20185;-71
2022/06/04 13:56:53;;;;;;;4.00;3.28;;;;;;;;;;5035038;28;20200;-70
2022/06/04 13:59:27;;;;;;;7.40;4.10;;;;;;;;;;5041560;28;20237;-69
2022/06/04 14:01:59;;;;;;;6.85;3.97;;;;;;;;;;5031717;28;21018;-66
2022/06/04 14:07:13;;;;;;;7.43;4.03;;;;;;;;;;5042605;28;20251;-69
2022/06/04 14:09:39;;;;;;;4.63;3.40;;;;;;;;;;5035972;28;20223;-70
2022/06/04 14:12:22;;;;;;;7.82;3.92;;;;;;;;;;5039897;28;20212;-68
2022/06/04 14:15:03;;;;;;;4.72;3.50;;;;;;;;;;5038612;28;20197;-67
2022/06/04 14:17:36;;;;;;;6.93;3.45;;;;;;;;;;5040005;28;20181;-69
2022/06/04 14:20:34;;;;;;;6.43;3.67;;;;;;;;;;5037535;28;20275;-68
2022/06/04 14:23:18;;;;;;;4.47;3.50;;;;;;;;;;5037050;28;20292;-70
2022/06/04 14:26:25;;;;;;;6.22;4.07;;;;;;;;;;5045847;28;20606;-65
2022/06/04 14:29:00;;;;;;;5.15;4.00;;;;;;;;;;5021316;28;20541;-67
2022/06/04 14:31:48;;;;;;;5.28;3.53;;;;;;;;;;5022962;28;20237;-66
2022/06/04 14:34:14;;;;;;;6.05;3.75;;;;;;;;;;5020456;28;20189;-68
2022/06/04 14:36:48;;;;;;;5.75;3.92;;;;;;;;;;5020398;28;20182;-67
2022/06/04 14:39:16;;;;;;;4.13;3.10;;;;;;;;;;5022210;28;20556;-65
2022/06/04 14:41:57;;;;;;;4.85;3.45;;;;;;;;;;5009333;28;21298;-66
2022/06/04 14:44:38;;;;;;;7.18;3.97;;;;;;;;;;5024421;28;20602;-67
2022/06/04 14:47:22;;;;;;;5.32;3.92;;;;;;;;;;5019334;28;20599;-68
2022/06/04 14:50:18;;;;;;;7.45;3.45;;;;;;;;;;5045200;28;20283;-69
2022/06/04 14:52:46;;;;;;;4.95;3.53;;;;;;;;;;4998940;28;20183;-71
2022/06/04 14:55:21;;;;;;;6.05;4.07;;;;;;;;;;5009411;28;20253;-69
2022/06/04 14:58:15;;;;;;;4.65;3.30;;;;;;;;;;5012448;28;20213;-69
2022/06/04 15:01:02;;;;;;;6.78;3.58;;;;;;;;;;5011445;28;20698;-69
2022/06/04 15:03:54;;;;;;;5.05;3.42;;;;;;;;;;5007710;28;20195;-71
2022/06/04 15:06:27;;;;;;;5.88;3.50;;;;;;;;;;5017240;28;20198;-71
2022/06/04 15:09:10;;;;;;;4.88;3.50;;;;;;;;;;5011494;28;20188;-69
2022/06/04 15:11:58;;;;;;;5.40;3.58;;;;;;;;;;5012960;28;20344;-69
2022/06/04 15:14:30;;;;;;;5.10;3.45;;;;;;;;;;5015507;28;20626;-70
2022/06/04 15:16:55;;;;;;;6.20;3.83;;;;;;;;;;5022773;28;20503;-69
2022/06/04 15:19:36;;;;;;;4.72;3.40;;;;;;;;;;5020041;28;20273;-69
2022/06/04 15:22:04;;;;;;;4.32;3.33;;;;;;;;;;5019313;28;20605;-72
2022/06/04 15:24:55;;;;;;;4.55;3.30;;;;;;;;;;5018689;28;20568;-70
2022/06/04 15:27:29;;;;;;;5.25;3.53;;;;;;;;;;5020398;28;20189;-70
2022/06/04 15:36:16;;;;;;;4.55;3.70;;;;;;;;;;5019147;28;20230;-70
2022/06/04 15:39:10;;;;;;;7.13;3.95;;;;;;;;;;5004069;28;20182;-70
2022/06/04 15:41:38;;;;;;;8.20;5.53;;;;;;;;;;5005295;28;20216;-70
2022/06/04 15:44:09;;;;;;;4.68;3.95;;;;;;;;;;5031911;28;20190;-69
2022/06/04 15:46:42;;;;;;;4.43;3.50;;;;;;;;;;5007241;28;20213;-68